Time;durP1;ratioP1;P1;durP2;ratioP2;P2;SDS_P1;SDS_P2;PMS_P1;PMS_P2;Temp;Humidity;BMP_temperature;BMP_pressure;BME280_temperature;BME280_humidity;BME280_pressure;Samples;Min_cycle;Max_cycle;Signal;HPM_P1;HPM_P2
2021/03/04 00:00:45;;;;;;;13.53;7.60;;;;;;;9.45;54.18;96884.69;5036379;28;20796;-85
2021/03/04 00:03:11;;;;;;;12.60;9.17;;;;;;;9.50;53.74;96881.16;5035523;28;20528;-84
2021/03/04 00:05:38;;;;;;;19.43;7.70;;;;;;;9.50;53.79;96883.84;5035388;28;20489;-84
2021/03/04 00:08:06;;;;;;;15.03;9.13;;;;;;;9.51;53.50;96876.50;5052388;28;20469;-85
2021/03/04 00:10:32;;;;;;;13.63;7.73;;;;;;;9.52;53.74;96884.06;5057247;28;20454;-85
2021/03/04 00:12:58;;;;;;;17.93;9.40;;;;;;;9.53;53.24;96876.69;5057700;28;20441;-85
2021/03/04 00:15:27;;;;;;;17.53;8.50;;;;;;;9.51;53.69;96871.84;5051568;28;20463;-86
2021/03/04 00:17:53;;;;;;;14.73;7.77;;;;;;;9.52;53.39;96867.88;5039334;28;20406;-85
2021/03/04 00:20:21;;;;;;;25.90;9.57;;;;;;;9.51;53.77;96871.13;5039253;28;20475;-86
2021/03/04 00:22:48;;;;;;;20.50;10.33;;;;;;;9.43;53.90;96870.31;5040222;28;20515;-85
2021/03/04 00:25:15;;;;;;;18.70;9.47;;;;;;;9.41;53.92;96870.09;5039655;28;20493;-86
2021/03/04 00:27:41;;;;;;;18.80;9.57;;;;;;;9.36;54.55;96863.56;5040196;28;20459;-85
2021/03/04 00:30:10;;;;;;;15.87;7.90;;;;;;;9.31;54.85;96869.03;5043479;28;20402;-86
2021/03/04 00:32:37;;;;;;;23.93;8.60;;;;;;;9.26;55.01;96865.22;5060344;28;20482;-86
2021/03/04 00:35:05;;;;;;;27.10;12.20;;;;;;;9.26;54.97;96865.22;5044429;28;20812;-86
2021/03/04 00:37:31;;;;;;;15.90;9.40;;;;;;;9.26;54.94;96865.22;5039116;28;20439;-85
2021/03/04 00:39:58;;;;;;;16.00;8.97;;;;;;;9.25;54.98;96863.03;5039048;28;20435;-85
2021/03/04 00:42:24;;;;;;;19.27;9.90;;;;;;;9.27;54.97;96868.66;5039197;28;20435;-85
2021/03/04 00:44:50;;;;;;;14.07;9.27;;;;;;;9.28;55.51;96862.72;5038248;28;20936;-85
2021/03/04 00:47:16;;;;;;;19.50;9.93;;;;;;;9.26;55.60;96848.34;5038882;28;20520;-85
2021/03/04 00:49:42;;;;;;;19.43;11.03;;;;;;;9.23;56.39;96849.38;5038531;28;20410;-86
2021/03/04 00:52:08;;;;;;;21.47;8.80;;;;;;;9.18;56.84;96848.22;5038818;28;20991;-86
2021/03/04 00:54:34;;;;;;;18.20;9.67;;;;;;;9.13;56.99;96847.13;5038556;28;21263;-86
2021/03/04 00:57:01;;;;;;;17.87;9.77;;;;;;;9.08;57.48;96849.91;5039207;28;20481;-86
2021/03/04 00:59:27;;;;;;;20.43;10.00;;;;;;;9.03;57.82;96848.75;5038870;28;20430;-86
2021/03/04 01:01:53;;;;;;;18.43;9.53;;;;;;;8.98;58.21;96848.88;5038731;28;20467;-85
2021/03/04 01:04:19;;;;;;;15.63;10.37;;;;;;;8.91;58.42;96841.41;5038723;28;20438;-85
2021/03/04 01:06:45;;;;;;;16.60;9.30;;;;;;;8.89;58.73;96844.63;5039376;28;20440;-86
2021/03/04 01:09:12;;;;;;;18.27;9.63;;;;;;;8.91;58.67;96842.13;5039137;28;20426;-86
2021/03/04 01:11:38;;;;;;;19.67;10.07;;;;;;;8.88;58.66;96843.16;5038773;28;20557;-86
2021/03/04 01:14:06;;;;;;;15.83;9.37;;;;;;;8.87;58.92;96843.66;5037897;28;20487;-87
2021/03/04 01:16:32;;;;;;;16.70;9.53;;;;;;;8.85;58.43;96838.09;5038720;28;20414;-85
2021/03/04 01:18:58;;;;;;;17.43;9.50;;;;;;;8.84;59.00;96833.94;5038337;28;20464;-85
2021/03/04 01:21:24;;;;;;;15.43;9.80;;;;;;;8.79;59.32;96834.78;5040241;28;20417;-86
2021/03/04 01:23:50;;;;;;;21.90;9.20;;;;;;;8.80;59.20;96830.84;5060175;28;20439;-84
2021/03/04 01:26:17;;;;;;;17.90;9.60;;;;;;;8.75;59.44;96829.69;5059099;28;20431;-86
2021/03/04 01:28:43;;;;;;;18.50;10.73;;;;;;;8.80;59.66;96830.84;5051646;28;20399;-86
2021/03/04 01:31:10;;;;;;;22.53;10.70;;;;;;;8.81;59.54;96824.22;5038400;28;20485;-85
2021/03/04 01:33:36;;;;;;;22.77;10.67;;;;;;;8.74;60.16;96816.78;5037415;28;20969;-85
2021/03/04 01:36:02;;;;;;;17.93;10.67;;;;;;;8.70;60.18;96814.38;5037923;28;20436;-86
2021/03/04 01:38:28;;;;;;;17.80;10.87;;;;;;;8.70;60.22;96809.00;5038471;28;20448;-86
2021/03/04 01:40:54;;;;;;;19.17;10.63;;;;;;;8.68;59.88;96808.06;5038213;28;21027;-86
2021/03/04 01:43:20;;;;;;;26.53;11.47;;;;;;;8.61;59.95;96807.41;5038342;28;20434;-85
2021/03/04 01:45:47;;;;;;;14.53;9.90;;;;;;;8.64;59.30;96804.97;5037426;28;20863;-85
2021/03/04 01:48:14;;;;;;;19.30;8.83;;;;;;;8.67;58.85;96801.25;5038423;28;20439;-85
2021/03/04 01:50:40;;;;;;;17.40;9.33;;;;;;;8.63;58.29;96800.81;5037719;28;20554;-85
2021/03/04 01:53:06;;;;;;;16.77;9.60;;;;;;;8.67;58.33;96795.84;5037424;28;20901;-85
2021/03/04 01:55:33;;;;;;;20.73;9.80;;;;;;;8.65;57.99;96798.31;5037456;28;20449;-85
2021/03/04 01:57:59;;;;;;;17.27;9.30;;;;;;;8.64;58.11;96791.50;5037592;28;20518;-84
2021/03/04 02:00:26;;;;;;;22.17;10.27;;;;;;;8.63;57.76;96790.06;5037507;28;20980;-84
2021/03/04 02:02:52;;;;;;;17.17;8.90;;;;;;;8.64;57.92;96784.16;5036990;28;20438;-84
2021/03/04 02:05:19;;;;;;;22.17;10.63;;;;;;;8.63;57.75;96785.41;5037241;28;20471;-86
2021/03/04 02:07:58;;;;;;;16.30;10.03;;;;;;;8.61;57.97;96783.22;5037571;28;20451;-85
2021/03/04 02:10:34;;;;;;;16.13;9.07;;;;;;;8.59;57.84;96779.59;5037610;28;20526;-85
2021/03/04 02:13:06;;;;;;;14.73;8.93;;;;;;;8.63;57.78;96773.91;5036909;28;20489;-84
2021/03/04 02:15:36;;;;;;;14.83;8.90;;;;;;;8.65;57.09;96776.81;5037874;28;20424;-86
2021/03/04 02:18:07;;;;;;;17.43;10.10;;;;;;;8.65;57.54;96768.72;5037512;28;20446;-84
2021/03/04 02:20:45;;;;;;;14.80;8.90;;;;;;;8.65;57.50;96771.41;5037049;28;20517;-84
2021/03/04 02:23:37;;;;;;;24.93;9.20;;;;;;;8.61;57.95;96764.38;5037660;28;20463;-85
2021/03/04 02:26:14;;;;;;;18.17;10.37;;;;;;;8.61;57.94;96756.31;5037284;28;20424;-85
2021/03/04 02:28:46;;;;;;;16.73;9.67;;;;;;;8.59;58.04;96750.00;5037746;28;20802;-85
2021/03/04 02:31:14;;;;;;;15.27;9.80;;;;;;;8.60;57.62;96752.19;5037021;28;20467;-85
2021/03/04 02:33:43;;;;;;;17.60;9.67;;;;;;;8.59;58.18;96752.69;5037112;28;20473;-84
2021/03/04 02:36:10;;;;;;;19.07;9.30;;;;;;;8.59;57.98;96750.00;5036710;28;20431;-85
2021/03/04 02:38:36;;;;;;;13.47;8.87;;;;;;;8.57;58.05;96749.81;5036094;28;20986;-85
2021/03/04 02:41:03;;;;;;;13.50;9.27;;;;;;;8.55;57.44;96742.25;5037106;28;20418;-86
2021/03/04 02:43:31;;;;;;;15.87;9.17;;;;;;;8.55;57.27;96741.53;5037270;28;20498;-86
2021/03/04 02:45:58;;;;;;;16.73;9.13;;;;;;;8.55;57.14;96744.25;5037422;28;20444;-86
2021/03/04 02:48:26;;;;;;;14.80;8.40;;;;;;;8.54;57.51;96740.81;5037658;28;20447;-84
2021/03/04 02:50:53;;;;;;;15.93;8.87;;;;;;;8.53;57.00;96738.63;5036723;28;20983;-86
2021/03/04 02:53:21;;;;;;;15.93;9.23;;;;;;;8.52;56.86;96745.97;5037129;28;20466;-86
2021/03/04 02:55:48;;;;;;;14.60;9.33;;;;;;;8.52;57.04;96735.22;5036143;28;20447;-86
2021/03/04 02:58:15;;;;;;;13.63;8.93;;;;;;;8.55;57.10;96730.78;5037331;28;20410;-86
2021/03/04 03:00:42;;;;;;;19.90;9.70;;;;;;;8.60;56.93;96727.25;5047038;28;20439;-86
2021/03/04 03:03:12;;;;;;;16.00;8.77;;;;;;;8.64;56.60;96727.69;5058597;28;20483;-86
2021/03/04 03:05:40;;;;;;;15.57;9.00;;;;;;;8.61;56.38;96724.03;5058343;28;20423;-85
2021/03/04 03:08:07;;;;;;;15.33;8.57;;;;;;;8.64;56.57;96716.19;5057853;28;20439;-86
2021/03/04 03:10:34;;;;;;;16.27;9.20;;;;;;;8.64;56.49;96725.00;5037196;28;20447;-85
2021/03/04 03:13:01;;;;;;;17.73;8.70;;;;;;;8.65;56.00;96717.63;5036732;28;20486;-85
2021/03/04 03:15:27;;;;;;;13.00;8.67;;;;;;;8.66;56.24;96717.13;5036528;28;20538;-86
2021/03/04 03:17:53;;;;;;;15.13;8.40;;;;;;;8.66;56.38;96719.09;5036500;28;20436;-86
2021/03/04 03:20:23;;;;;;;11.47;8.20;;;;;;;8.63;56.57;96714.75;5036165;28;20959;-85
2021/03/04 03:22:50;;;;;;;13.37;8.20;;;;;;;8.63;57.01;96718.16;5036232;28;20470;-85
2021/03/04 03:25:17;;;;;;;17.13;9.87;;;;;;;8.60;57.31;96711.84;5036652;28;20455;-85
2021/03/04 03:27:45;;;;;;;17.20;9.07;;;;;;;8.56;57.67;96710.69;5035520;28;20444;-84
2021/03/04 03:30:14;;;;;;;18.87;8.97;;;;;;;8.51;57.78;96709.59;5036561;28;20455;-84
2021/03/04 03:32:45;;;;;;;15.13;9.73;;;;;;;8.48;58.52;96720.66;5035911;28;20461;-84
2021/03/04 03:35:16;;;;;;;16.80;8.60;;;;;;;8.39;59.04;96708.34;5035880;28;20431;-85
2021/03/04 03:37:45;;;;;;;19.03;10.67;;;;;;;8.39;59.21;96708.34;5036645;28;20454;-85
2021/03/04 03:40:14;;;;;;;15.87;9.43;;;;;;;8.38;59.20;96706.16;5036349;28;20947;-84
2021/03/04 03:42:41;;;;;;;17.63;9.90;;;;;;;8.37;59.11;96702.72;5036728;28;20999;-84
2021/03/04 03:45:14;;;;;;;18.37;11.07;;;;;;;8.27;59.72;96707.03;5035907;28;20485;-83
2021/03/04 03:47:40;;;;;;;18.00;10.00;;;;;;;8.22;59.57;96704.44;5036357;28;20481;-85
2021/03/04 03:50:08;;;;;;;13.97;9.03;;;;;;;8.21;59.90;96709.09;5037030;28;20454;-86
2021/03/04 03:52:35;;;;;;;17.07;9.77;;;;;;;8.19;59.27;96705.47;5039628;28;20547;-85
2021/03/04 03:55:04;;;;;;;17.93;11.70;;;;;;;8.14;60.09;96709.72;5039997;28;21048;-85
2021/03/04 03:57:31;;;;;;;18.37;9.50;;;;;;;8.10;60.28;96709.31;5039380;28;20435;-85
2021/03/04 03:59:57;;;;;;;17.27;8.90;;;;;;;8.10;59.98;96693.19;5042563;28;20946;-85
2021/03/04 04:02:24;;;;;;;18.13;9.33;;;;;;;8.06;59.97;96703.50;5059847;28;20446;-83
2021/03/04 04:04:50;;;;;;;17.40;10.07;;;;;;;8.05;59.94;96702.03;5040595;28;20447;-85
2021/03/04 04:07:17;;;;;;;13.30;8.50;;;;;;;8.09;59.82;96689.03;5040381;28;20459;-85
2021/03/04 04:09:45;;;;;;;15.93;8.63;;;;;;;8.07;59.75;96688.84;5039307;28;20462;-83
2021/03/04 04:12:12;;;;;;;20.33;9.57;;;;;;;8.08;59.50;96679.53;5039408;28;20517;-85
2021/03/04 04:14:38;;;;;;;12.87;9.53;;;;;;;8.05;59.62;96680.53;5039967;28;20641;-84
2021/03/04 04:17:05;;;;;;;19.03;10.63;;;;;;;8.04;59.84;96679.13;5039230;28;20442;-85
2021/03/04 04:19:32;;;;;;;16.10;9.03;;;;;;;8.02;59.54;96676.94;5039038;28;20963;-85
2021/03/04 04:21:58;;;;;;;20.90;9.90;;;;;;;8.04;59.78;96671.06;5039540;28;20451;-85
2021/03/04 04:24:25;;;;;;;17.13;8.27;;;;;;;8.08;59.60;96666.09;5039238;28;20449;-85
2021/03/04 04:26:51;;;;;;;17.70;9.50;;;;;;;8.08;59.38;96674.88;5039832;28;20451;-85
2021/03/04 04:29:18;;;;;;;12.70;8.33;;;;;;;8.05;59.50;96675.16;5039493;28;20446;-85
2021/03/04 04:31:44;;;;;;;19.23;9.83;;;;;;;8.04;59.43;96674.47;5039224;28;20934;-84
2021/03/04 04:34:10;;;;;;;17.23;8.27;;;;;;;8.04;59.30;96673.75;5039087;28;20541;-84
2021/03/04 04:36:36;;;;;;;15.60;8.53;;;;;;;8.02;59.46;96674.25;5038967;28;20443;-84
2021/03/04 04:39:03;;;;;;;15.53;10.00;;;;;;;8.01;59.22;96672.81;5039424;28;20410;-83
2021/03/04 04:41:29;;;;;;;17.13;9.23;;;;;;;7.96;59.83;96667.50;5040164;28;20455;-84
2021/03/04 04:43:56;;;;;;;15.27;9.67;;;;;;;7.89;59.58;96657.41;5039846;28;20489;-84
2021/03/04 04:46:22;;;;;;;14.70;9.67;;;;;;;7.83;59.87;96657.47;5039910;28;20445;-84
2021/03/04 04:48:48;;;;;;;20.90;8.50;;;;;;;7.82;59.66;96666.06;5040536;28;20516;-84
2021/03/04 04:51:15;;;;;;;18.33;9.50;;;;;;;7.83;59.63;96662.84;5039868;28;20586;-85
2021/03/04 04:53:41;;;;;;;23.43;9.67;;;;;;;7.83;59.56;96659.44;5039945;28;20550;-85
2021/03/04 04:56:07;;;;;;;17.73;8.97;;;;;;;7.79;60.05;96653.66;5039419;28;20504;-84
2021/03/04 04:58:33;;;;;;;16.00;9.23;;;;;;;7.80;59.76;96647.06;5040044;28;20451;-85
2021/03/04 05:00:59;;;;;;;16.80;8.97;;;;;;;7.79;59.76;96642.91;5039679;28;20534;-85
2021/03/04 05:03:26;;;;;;;19.57;9.33;;;;;;;7.84;59.37;96650.13;5039295;28;20503;-85
2021/03/04 05:05:52;;;;;;;14.73;9.17;;;;;;;7.85;59.59;96640.84;5040390;28;20523;-85
2021/03/04 05:08:19;;;;;;;16.67;8.90;;;;;;;7.82;59.26;96642.59;5038686;28;20827;-85
2021/03/04 05:10:45;;;;;;;13.20;8.90;;;;;;;7.85;59.18;96644.25;5039330;28;20447;-85
2021/03/04 05:13:11;;;;;;;15.50;9.13;;;;;;;7.87;59.49;96644.47;5039399;28;20444;-85
2021/03/04 05:15:37;;;;;;;17.27;8.30;;;;;;;7.86;59.12;96639.63;5039882;28;20443;-85
2021/03/04 05:18:04;;;;;;;15.10;8.47;;;;;;;7.84;59.25;96644.75;5039177;28;20442;-84
2021/03/04 05:20:31;;;;;;;17.93;7.67;;;;;;;7.79;59.86;96638.25;5039262;28;20493;-84
2021/03/04 05:22:57;;;;;;;16.10;8.70;;;;;;;7.80;59.67;96626.25;5039063;28;20436;-83
2021/03/04 05:25:23;;;;;;;18.07;8.90;;;;;;;7.83;59.55;96630.59;5040150;28;20550;-84
2021/03/04 05:27:49;;;;;;;18.87;9.77;;;;;;;7.82;59.26;96626.50;5039359;28;20462;-84
2021/03/04 05:30:16;;;;;;;16.43;7.90;;;;;;;7.83;59.52;96619.16;5038984;28;20604;-85
2021/03/04 05:32:42;;;;;;;19.27;8.30;;;;;;;7.80;59.74;96628.94;5038997;28;20549;-85
2021/03/04 05:35:10;;;;;;;13.80;8.40;;;;;;;7.80;59.83;96620.19;5038551;28;20447;-85
2021/03/04 05:37:37;;;;;;;17.90;8.97;;;;;;;7.80;59.55;96612.13;5038817;28;20466;-85
2021/03/04 05:40:04;;;;;;;19.77;9.97;;;;;;;7.78;59.95;96618.00;5039199;28;20439;-85
2021/03/04 05:42:31;;;;;;;24.60;10.30;;;;;;;7.79;59.92;96616.78;5039764;28;20439;-84
2021/03/04 05:44:58;;;;;;;17.93;10.17;;;;;;;7.75;60.12;96605.59;5039212;28;20446;-86
2021/03/04 05:47:25;;;;;;;18.43;9.20;;;;;;;7.82;59.58;96610.38;5038770;28;20450;-85
2021/03/04 05:50:00;;;;;;;13.53;8.90;;;;;;;7.87;59.53;96611.50;5038385;28;20519;-85
2021/03/04 05:52:27;;;;;;;16.77;9.23;;;;;;;7.87;59.32;96603.44;5039225;28;20437;-85
2021/03/04 05:54:56;;;;;;;14.83;8.90;;;;;;;7.89;59.34;96604.38;5039326;28;20781;-85
2021/03/04 05:57:22;;;;;;;16.50;9.77;;;;;;;7.86;58.79;96604.69;5052105;28;20459;-85
2021/03/04 05:59:52;;;;;;;14.27;9.33;;;;;;;7.83;59.36;96605.72;5058813;28;20439;-85
2021/03/04 06:02:21;;;;;;;17.90;9.53;;;;;;;7.84;59.00;96607.16;5059293;28;20430;-85
2021/03/04 06:04:48;;;;;;;13.40;9.13;;;;;;;7.89;58.38;96599.00;5057591;28;20442;-85
2021/03/04 06:07:14;;;;;;;15.20;8.67;;;;;;;7.85;58.43;96592.50;5040182;28;20539;-86
2021/03/04 06:09:40;;;;;;;15.23;9.10;;;;;;;7.86;59.03;96602.72;5039337;28;20454;-87
2021/03/04 06:12:08;;;;;;;13.70;9.60;;;;;;;7.85;58.54;96601.28;5039144;28;20485;-86
2021/03/04 06:14:35;;;;;;;11.93;8.03;;;;;;;7.87;58.96;96595.38;5039100;28;20538;-85
2021/03/04 06:17:12;;;;;;;19.17;8.73;;;;;;;7.87;58.72;96598.06;5038798;28;20479;-85
2021/03/04 06:19:38;;;;;;;16.53;9.87;;;;;;;7.84;58.36;96599.09;5041450;28;20422;-87
2021/03/04 06:22:04;;;;;;;19.60;10.23;;;;;;;7.86;58.88;96593.94;5040544;28;20517;-85
2021/03/04 06:24:30;;;;;;;13.60;8.97;;;;;;;7.87;58.22;96600.75;5039256;28;20475;-85
2021/03/04 06:26:57;;;;;;;24.00;9.90;;;;;;;7.83;58.72;96589.59;5038858;28;20787;-84
2021/03/04 06:29:26;;;;;;;21.23;8.53;;;;;;;7.82;58.50;96590.84;5040404;28;20542;-85
2021/03/04 06:32:01;;;;;;;16.27;9.10;;;;;;;7.83;58.52;96598.38;5039150;28;20487;-87
2021/03/04 06:34:27;;;;;;;15.70;8.30;;;;;;;7.86;58.78;96593.94;5039991;28;20490;-87
2021/03/04 06:36:56;;;;;;;18.37;9.17;;;;;;;7.90;58.13;96595.06;5040160;28;20880;-87
2021/03/04 06:39:22;;;;;;;15.83;9.50;;;;;;;7.97;58.37;96596.44;5039456;28;20481;-87
2021/03/04 06:42:00;;;;;;;13.43;9.10;;;;;;;8.02;58.30;96601.69;5039549;28;20506;-85
2021/03/04 06:44:28;;;;;;;17.57;10.03;;;;;;;8.09;57.83;96600.34;5040024;28;20485;-87
2021/03/04 06:46:54;;;;;;;21.03;10.00;;;;;;;8.11;57.91;96595.19;5042272;28;20516;-86
2021/03/04 06:49:20;;;;;;;16.90;10.27;;;;;;;8.11;58.33;96591.78;5040999;28;20462;-87
2021/03/04 06:51:47;;;;;;;14.27;8.50;;;;;;;8.12;58.37;96593.94;5039998;28;20521;-87
2021/03/04 06:54:23;;;;;;;22.20;9.20;;;;;;;8.10;58.50;96599.13;5039799;28;20980;-87
2021/03/04 06:56:49;;;;;;;14.30;8.60;;;;;;;8.13;58.74;96584.66;5038695;28;20514;-87
2021/03/04 06:59:15;;;;;;;17.57;9.23;;;;;;;8.21;58.21;96579.34;5040369;28;20430;-88
2021/03/04 07:01:43;;;;;;;17.03;9.83;;;;;;;8.24;58.64;96589.78;5040001;28;20436;-87
2021/03/04 07:04:14;;;;;;;17.10;9.40;;;;;;;8.28;58.48;96584.13;5040285;28;20442;-87
2021/03/04 07:06:41;;;;;;;14.30;9.20;;;;;;;8.33;58.33;96586.72;5039865;28;20414;-88
2021/03/04 07:09:07;;;;;;;16.07;8.90;;;;;;;8.43;58.26;96587.72;5038797;28;20429;-87
2021/03/04 07:11:35;;;;;;;19.57;9.73;;;;;;;8.59;58.54;96588.63;5039984;28;20469;-88
2021/03/04 07:14:03;;;;;;;19.77;9.33;;;;;;;8.71;58.20;96597.22;5039706;28;20434;-87
2021/03/04 07:16:33;;;;;;;15.50;9.50;;;;;;;8.88;57.52;96592.91;5039210;28;20793;-87
2021/03/04 07:19:01;;;;;;;17.40;9.23;;;;;;;9.02;56.39;96582.84;5038912;28;20542;-88
2021/03/04 07:21:34;;;;;;;16.03;9.43;;;;;;;9.11;56.06;96590.47;5039817;28;20518;-87
2021/03/04 07:24:03;;;;;;;18.40;8.20;;;;;;;9.32;55.34;96593.16;5040212;28;20474;-88
2021/03/04 07:26:30;;;;;;;17.80;9.80;;;;;;;9.66;54.79;96599.91;5044150;28;20557;-87
2021/03/04 07:28:57;;;;;;;16.73;8.53;;;;;;;10.13;52.65;96590.84;5058088;28;20447;-87
2021/03/04 07:31:23;;;;;;;16.30;9.93;;;;;;;10.58;52.44;96596.50;5061305;28;20486;-85
2021/03/04 07:33:51;;;;;;;21.87;10.70;;;;;;;11.01;50.69;96593.03;5060999;28;20463;-87
2021/03/04 07:36:21;;;;;;;15.77;9.17;;;;;;;11.48;49.73;96589.84;5053020;28;20394;-87
2021/03/04 07:38:54;;;;;;;21.93;10.27;;;;;;;11.85;48.51;96598.50;5060859;28;20483;-88
2021/03/04 07:41:21;;;;;;;19.73;11.13;;;;;;;12.21;47.77;96596.31;5048640;28;20416;-88
2021/03/04 07:43:50;;;;;;;14.83;9.20;;;;;;;12.40;47.78;96591.19;5045587;28;20520;-89
2021/03/04 07:46:34;;;;;;;20.30;10.70;;;;;;;12.54;47.28;96588.97;5045569;28;20442;-89
2021/03/04 07:49:02;;;;;;;15.73;10.70;;;;;;;12.71;47.12;96591.78;5046117;28;20456;-88
2021/03/04 07:51:41;;;;;;;17.37;9.90;;;;;;;12.99;46.95;96588.03;5044845;28;20581;-89
2021/03/04 07:54:08;;;;;;;22.90;10.20;;;;;;;13.24;45.73;96586.84;5044720;28;20548;-88
2021/03/04 07:56:34;;;;;;;19.13;9.83;;;;;;;13.49;45.83;96584.13;5046135;28;20476;-88
2021/03/04 07:59:09;;;;;;;23.80;10.13;;;;;;;13.86;44.19;96576.94;5044426;28;20454;-88
2021/03/04 08:01:35;;;;;;;16.20;9.47;;;;;;;14.31;43.38;96581.22;5044591;28;20401;-89
2021/03/04 08:04:02;;;;;;;24.70;11.43;;;;;;;14.28;43.10;96583.03;5045510;28;20455;-88
2021/03/04 08:06:29;;;;;;;14.23;9.70;;;;;;;14.60;43.08;96582.16;5044743;28;20475;-88
2021/03/04 08:08:55;;;;;;;20.80;10.53;;;;;;;14.73;42.13;96578.38;5043307;28;20506;-88
2021/03/04 08:11:28;;;;;;;19.50;10.33;;;;;;;14.80;41.63;96581.00;5044308;28;20558;-89
2021/03/04 08:13:55;;;;;;;20.23;10.13;;;;;;;14.50;42.61;96581.38;5044824;28;20550;-88
2021/03/04 08:16:22;;;;;;;19.00;11.23;;;;;;;14.46;43.00;96581.78;5045209;28;20423;-89
2021/03/04 08:18:56;;;;;;;20.77;10.80;;;;;;;14.41;42.92;96580.00;5043687;28;20431;-88
2021/03/04 08:21:22;;;;;;;19.30;10.77;;;;;;;14.25;43.50;96578.72;5043663;28;20543;-88
2021/03/04 08:23:50;;;;;;;19.97;9.40;;;;;;;14.07;42.74;96566.41;5046608;28;20488;-90
2021/03/04 08:26:20;;;;;;;20.87;9.90;;;;;;;14.11;43.03;96568.75;5048718;28;20414;-90
2021/03/04 08:28:47;;;;;;;17.83;10.33;;;;;;;14.01;43.31;96565.22;5044500;28;20944;-88
2021/03/04 08:31:14;;;;;;;15.43;10.00;;;;;;;14.01;43.04;96565.22;5042437;28;20504;-90
2021/03/04 08:33:41;;;;;;;18.20;8.63;;;;;;;13.92;43.15;96558.44;5043078;28;20462;-90
2021/03/04 08:36:07;;;;;;;29.23;9.60;;;;;;;13.85;43.17;96554.53;5044427;28;20445;-89
2021/03/04 08:38:41;;;;;;;17.90;9.43;;;;;;;13.88;43.51;96552.69;5045715;28;20426;-90
2021/03/04 08:41:09;;;;;;;16.93;8.90;;;;;;;13.83;43.72;96551.66;5043294;28;20451;-90
2021/03/04 08:43:35;;;;;;;14.70;8.90;;;;;;;13.93;43.23;96541.63;5044621;28;20463;-90
2021/03/04 08:46:03;;;;;;;16.70;9.20;;;;;;;13.90;42.85;96537.31;5044662;28;20422;-89
2021/03/04 08:48:30;;;;;;;16.67;9.13;;;;;;;14.06;42.95;96537.16;5044132;28;20436;-89
2021/03/04 08:50:58;;;;;;;18.50;9.37;;;;;;;14.16;41.79;96544.06;5043311;28;20436;-88
2021/03/04 08:53:27;;;;;;;18.90;8.97;;;;;;;14.14;41.18;96543.91;5043750;28;20455;-89
2021/03/04 08:55:55;;;;;;;12.00;7.63;;;;;;;13.99;40.46;96537.94;5044758;28;20410;-89
2021/03/04 08:58:25;;;;;;;16.43;9.63;;;;;;;14.12;40.48;96541.06;5051760;28;20471;-88
2021/03/04 09:00:53;;;;;;;15.70;9.33;;;;;;;14.17;40.48;96526.53;5057268;28;20443;-89
2021/03/04 09:03:21;;;;;;;16.47;8.50;;;;;;;14.03;41.14;96528.13;5058183;28;20430;-89
2021/03/04 09:05:47;;;;;;;15.57;8.03;;;;;;;13.99;40.87;96529.78;5059593;28;20410;-89
2021/03/04 09:08:15;;;;;;;21.90;8.37;;;;;;;13.79;40.97;96521.50;5048904;28;20433;-90
2021/03/04 09:10:43;;;;;;;17.33;7.73;;;;;;;13.69;41.54;96526.09;5043352;28;20529;-91
2021/03/04 09:13:09;;;;;;;18.40;8.90;;;;;;;13.83;41.29;96515.66;5045602;28;20983;-89
2021/03/04 09:15:42;;;;;;;26.87;9.30;;;;;;;13.71;41.62;96512.00;5045978;28;20421;-88
2021/03/04 09:18:09;;;;;;;14.87;8.77;;;;;;;13.82;41.57;96506.81;5046413;28;20515;-89
2021/03/04 09:20:36;;;;;;;15.57;9.27;;;;;;;13.89;41.50;96505.28;5042569;28;20414;-90
2021/03/04 09:23:04;;;;;;;13.87;8.30;;;;;;;14.04;41.68;96501.69;5045588;28;20463;-89
2021/03/04 09:25:31;;;;;;;19.50;8.10;;;;;;;14.13;41.59;96506.47;5058518;28;20406;-87
2021/03/04 09:27:57;;;;;;;17.63;8.10;;;;;;;14.19;41.18;96510.38;5059339;28;20439;-87
2021/03/04 09:30:25;;;;;;;18.30;8.77;;;;;;;14.01;41.83;96506.25;5049740;28;20448;-87
2021/03/04 09:32:54;;;;;;;16.23;8.33;;;;;;;14.04;42.04;96501.69;5047336;28;20990;-92
2021/03/04 09:35:20;;;;;;;15.17;9.17;;;;;;;14.04;42.21;96504.41;5044522;28;20439;-88
2021/03/04 09:37:46;;;;;;;25.07;8.33;;;;;;;14.00;42.22;96498.69;5043957;28;20433;-89
2021/03/04 09:40:22;;;;;;;22.60;9.07;;;;;;;13.85;42.88;96500.28;5042918;28;20911;-89
2021/03/04 09:42:49;;;;;;;15.70;8.60;;;;;;;13.76;43.06;96494.75;5042646;28;20470;-88
2021/03/04 09:45:15;;;;;;;21.13;9.53;;;;;;;13.72;43.00;96492.44;5041369;28;20444;-89
2021/03/04 09:47:44;;;;;;;17.40;9.43;;;;;;;13.64;43.25;96497.22;5041577;28;20479;-89
2021/03/04 09:50:19;;;;;;;20.50;8.37;;;;;;;13.91;42.98;96489.16;5041696;28;20406;-89
2021/03/04 09:52:45;;;;;;;18.53;9.87;;;;;;;13.99;42.71;96489.09;5044491;28;20498;-89
2021/03/04 09:55:15;;;;;;;22.30;8.77;;;;;;;14.03;42.95;96484.72;5046839;28;20775;-89
2021/03/04 09:57:42;;;;;;;13.77;7.77;;;;;;;14.03;42.71;96471.16;5044856;28;20418;-88
2021/03/04 10:00:23;;;;;;;16.10;7.93;;;;;;;14.14;42.70;96469.94;5041763;28;20462;-89
2021/03/04 10:02:51;;;;;;;15.77;8.40;;;;;;;14.20;42.65;96462.97;5042782;28;20447;-90
2021/03/04 10:05:19;;;;;;;18.13;7.80;;;;;;;14.37;42.82;96473.13;5044178;28;20432;-89
2021/03/04 10:07:46;;;;;;;18.80;9.07;;;;;;;14.39;42.24;96470.53;5040727;28;20935;-88
2021/03/04 10:10:14;;;;;;;13.97;8.50;;;;;;;14.34;42.48;96471.53;5041754;28;20394;-89
2021/03/04 10:12:48;;;;;;;18.57;9.53;;;;;;;14.41;42.79;96470.69;5041672;28;20528;-88
2021/03/04 10:15:24;;;;;;;18.73;8.67;;;;;;;14.57;42.20;96473.91;5040966;28;20444;-88
2021/03/04 10:17:50;;;;;;;15.83;8.20;;;;;;;14.63;42.84;96475.09;5040951;28;20426;-88
2021/03/04 10:20:18;;;;;;;12.57;7.53;;;;;;;14.66;42.54;96460.38;5039428;28;20956;-88
2021/03/04 10:22:44;;;;;;;25.33;9.67;;;;;;;14.73;42.52;96456.13;5040504;28;20902;-87
2021/03/04 10:25:11;;;;;;;16.80;8.53;;;;;;;14.82;42.35;96453.47;5039186;28;20443;-88
2021/03/04 10:27:37;;;;;;;17.33;9.10;;;;;;;14.85;41.90;96451.59;5039135;28;20425;-88
2021/03/04 10:30:07;;;;;;;17.97;8.47;;;;;;;14.84;42.29;96455.63;5038037;28;20440;-89
2021/03/04 10:32:33;;;;;;;15.30;8.33;;;;;;;15.01;41.62;96464.41;5039323;28;20578;-88
2021/03/04 10:34:59;;;;;;;18.33;9.37;;;;;;;15.04;41.90;96459.81;5040028;28;20454;-87
2021/03/04 10:37:26;;;;;;;20.87;8.87;;;;;;;15.07;42.22;96449.84;5053242;28;20430;-88
2021/03/04 10:39:52;;;;;;;19.83;9.83;;;;;;;15.07;42.49;96455.97;5041059;28;20422;-89
2021/03/04 10:42:18;;;;;;;20.07;8.73;;;;;;;15.13;42.23;96459.13;5041841;28;20431;-89
2021/03/04 10:44:44;;;;;;;17.70;9.43;;;;;;;15.17;42.26;96448.56;5042070;28;20534;-88
2021/03/04 10:47:11;;;;;;;14.57;8.73;;;;;;;15.21;42.48;96454.31;5052875;28;20448;-89
2021/03/04 10:49:39;;;;;;;19.00;9.50;;;;;;;15.24;42.21;96452.44;5039406;28;20893;-87
2021/03/04 10:52:05;;;;;;;19.70;10.83;;;;;;;15.31;41.50;96446.19;5039861;28;20474;-88
2021/03/04 10:54:42;;;;;;;27.57;9.80;;;;;;;15.35;41.85;96449.16;5049863;28;20448;-85
2021/03/04 10:57:08;;;;;;;17.27;9.73;;;;;;;15.42;41.61;96432.00;5039429;28;20454;-89
2021/03/04 10:59:34;;;;;;;18.80;9.70;;;;;;;15.47;41.91;96441.91;5037576;28;20447;-89
2021/03/04 11:02:00;;;;;;;20.60;10.33;;;;;;;15.45;42.36;96441.75;5042054;28;20422;-90
2021/03/04 11:04:26;;;;;;;21.90;10.80;;;;;;;15.45;42.27;96450.63;5043207;28;20494;-88
2021/03/04 11:06:52;;;;;;;16.30;9.83;;;;;;;15.26;41.83;96434.28;5043476;28;20509;-88
2021/03/04 11:09:18;;;;;;;23.47;10.90;;;;;;;15.09;42.27;96433.66;5042707;28;20511;-86
2021/03/04 11:11:45;;;;;;;20.10;10.47;;;;;;;15.27;42.36;96429.56;5042954;28;20519;-89
2021/03/04 11:14:11;;;;;;;16.40;11.67;;;;;;;15.26;42.45;96434.28;5045084;28;20437;-89
2021/03/04 11:16:37;;;;;;;18.03;9.80;;;;;;;15.41;42.95;96433.31;5044774;28;20485;-90
2021/03/04 11:19:04;;;;;;;23.33;10.30;;;;;;;15.53;41.53;96424.06;5042399;28;20434;-91
2021/03/04 11:21:30;;;;;;;17.77;10.00;;;;;;;15.71;41.22;96423.91;5041953;28;20962;-89
2021/03/04 11:23:56;;;;;;;23.20;9.67;;;;;;;15.67;42.28;96416.16;5041159;28;20509;-90
2021/03/04 11:26:23;;;;;;;25.90;10.60;;;;;;;15.59;42.56;96423.75;5039493;28;20450;-90
2021/03/04 11:28:50;;;;;;;18.13;10.30;;;;;;;15.56;42.49;96414.03;5041121;28;20474;-88
2021/03/04 11:31:16;;;;;;;22.00;10.00;;;;;;;15.64;42.63;96409.16;5040331;28;20495;-87